sensor_id;sensor_type;location;lat;lon;timestamp;temperature;humidity
12901;DHT22;6518;50.930;5.344;2023-05-20T00:01:52;15.40;60.70
12901;DHT22;6518;50.930;5.344;2023-05-20T00:04:19;15.30;60.80
12901;DHT22;6518;50.930;5.344;2023-05-20T00:06:46;15.30;61.00
12901;DHT22;6518;50.930;5.344;2023-05-20T00:09:13;15.30;61.90
12901;DHT22;6518;50.930;5.344;2023-05-20T00:11:41;15.20;61.30
12901;DHT22;6518;50.930;5.344;2023-05-20T00:14:08;15.20;61.50
12901;DHT22;6518;50.930;5.344;2023-05-20T00:16:37;15.10;61.60
12901;DHT22;6518;50.930;5.344;2023-05-20T00:19:04;15.10;61.70
12901;DHT22;6518;50.930;5.344;2023-05-20T00:21:31;15.10;61.90
12901;DHT22;6518;50.930;5.344;2023-05-20T00:23:58;15.10;62.80
12901;DHT22;6518;50.930;5.344;2023-05-20T00:26:25;15.00;62.30
12901;DHT22;6518;50.930;5.344;2023-05-20T00:28:52;14.90;62.60
12901;DHT22;6518;50.930;5.344;2023-05-20T00:31:19;14.90;62.40
12901;DHT22;6518;50.930;5.344;2023-05-20T00:33:48;15.00;62.70
12901;DHT22;6518;50.930;5.344;2023-05-20T00:36:14;14.90;63.60
12901;DHT22;6518;50.930;5.344;2023-05-20T00:38:41;14.90;63.00
12901;DHT22;6518;50.930;5.344;2023-05-20T00:41:08;14.90;62.80
12901;DHT22;6518;50.930;5.344;2023-05-20T00:43:35;14.90;62.90
12901;DHT22;6518;50.930;5.344;2023-05-20T00:46:02;14.80;63.20
12901;DHT22;6518;50.930;5.344;2023-05-20T00:48:39;14.80;63.50
12901;DHT22;6518;50.930;5.344;2023-05-20T00:51:08;14.80;63.50
12901;DHT22;6518;50.930;5.344;2023-05-20T00:53:35;14.80;63.50
12901;DHT22;6518;50.930;5.344;2023-05-20T00:56:03;14.80;63.70
12901;DHT22;6518;50.930;5.344;2023-05-20T00:58:30;14.70;63.80
12901;DHT22;6518;50.930;5.344;2023-05-20T01:00:57;14.70;64.10
12901;DHT22;6518;50.930;5.344;2023-05-20T01:03:24;14.70;64.10
12901;DHT22;6518;50.930;5.344;2023-05-20T01:05:51;14.60;64.30
12901;DHT22;6518;50.930;5.344;2023-05-20T01:08:20;14.60;64.40
12901;DHT22;6518;50.930;5.344;2023-05-20T01:10:50;14.60;64.60
12901;DHT22;6518;50.930;5.344;2023-05-20T01:13:26;14.50;64.60
12901;DHT22;6518;50.930;5.344;2023-05-20T01:15:56;14.40;64.80
12901;DHT22;6518;50.930;5.344;2023-05-20T01:18:24;14.40;64.90
12901;DHT22;6518;50.930;5.344;2023-05-20T01:20:54;14.40;65.20
12901;DHT22;6518;50.930;5.344;2023-05-20T01:23:32;14.30;65.10
12901;DHT22;6518;50.930;5.344;2023-05-20T01:25:59;14.30;65.20
12901;DHT22;6518;50.930;5.344;2023-05-20T01:28:26;14.30;65.60
12901;DHT22;6518;50.930;5.344;2023-05-20T01:30:57;14.20;65.50
12901;DHT22;6518;50.930;5.344;2023-05-20T01:33:28;14.20;65.60
12901;DHT22;6518;50.930;5.344;2023-05-20T01:35:55;14.10;65.90
12901;DHT22;6518;50.930;5.344;2023-05-20T01:38:23;14.10;65.90
12901;DHT22;6518;50.930;5.344;2023-05-20T01:40:53;14.00;66.20
12901;DHT22;6518;50.930;5.344;2023-05-20T01:43:20;14.10;66.10
12901;DHT22;6518;50.930;5.344;2023-05-20T01:45:48;14.00;66.40
12901;DHT22;6518;50.930;5.344;2023-05-20T01:48:15;13.80;66.80
12901;DHT22;6518;50.930;5.344;2023-05-20T01:50:42;13.80;66.90
12901;DHT22;6518;50.930;5.344;2023-05-20T01:53:09;13.80;67.00
12901;DHT22;6518;50.930;5.344;2023-05-20T01:55:37;13.70;67.10
12901;DHT22;6518;50.930;5.344;2023-05-20T01:58:06;13.60;67.50
12901;DHT22;6518;50.930;5.344;2023-05-20T02:00:33;13.60;67.60
12901;DHT22;6518;50.930;5.344;2023-05-20T02:03:00;13.60;67.70
12901;DHT22;6518;50.930;5.344;2023-05-20T02:05:28;13.60;67.60
12901;DHT22;6518;50.930;5.344;2023-05-20T02:07:55;13.60;67.70
12901;DHT22;6518;50.930;5.344;2023-05-20T02:10:22;13.60;67.80
12901;DHT22;6518;50.930;5.344;2023-05-20T02:12:49;13.40;68.20
12901;DHT22;6518;50.930;5.344;2023-05-20T02:15:17;13.40;68.50
12901;DHT22;6518;50.930;5.344;2023-05-20T02:17:45;13.40;68.70
12901;DHT22;6518;50.930;5.344;2023-05-20T02:20:12;13.40;68.70
12901;DHT22;6518;50.930;5.344;2023-05-20T02:22:39;13.30;69.10
12901;DHT22;6518;50.930;5.344;2023-05-20T02:25:07;13.30;69.10
12901;DHT22;6518;50.930;5.344;2023-05-20T02:27:35;13.20;69.30
12901;DHT22;6518;50.930;5.344;2023-05-20T02:30:01;13.30;69.20
12901;DHT22;6518;50.930;5.344;2023-05-20T02:32:30;13.20;69.30
12901;DHT22;6518;50.930;5.344;2023-05-20T02:34:58;13.20;69.70
12901;DHT22;6518;50.930;5.344;2023-05-20T02:37:25;13.20;69.80
12901;DHT22;6518;50.930;5.344;2023-05-20T02:39:53;13.20;69.80
12901;DHT22;6518;50.930;5.344;2023-05-20T02:42:20;13.20;70.00
12901;DHT22;6518;50.930;5.344;2023-05-20T02:44:47;13.20;70.00
12901;DHT22;6518;50.930;5.344;2023-05-20T02:47:14;13.20;70.00
12901;DHT22;6518;50.930;5.344;2023-05-20T02:49:42;13.10;70.20
12901;DHT22;6518;50.930;5.344;2023-05-20T02:52:09;13.00;70.40
12901;DHT22;6518;50.930;5.344;2023-05-20T02:54:36;13.00;71.40
12901;DHT22;6518;50.930;5.344;2023-05-20T02:57:04;12.90;71.10
12901;DHT22;6518;50.930;5.344;2023-05-20T02:59:31;12.90;71.20
12901;DHT22;6518;50.930;5.344;2023-05-20T03:01:58;12.90;71.50
12901;DHT22;6518;50.930;5.344;2023-05-20T03:04:25;12.80;71.70
12901;DHT22;6518;50.930;5.344;2023-05-20T03:06:54;12.70;72.20
12901;DHT22;6518;50.930;5.344;2023-05-20T03:09:22;12.80;72.20
12901;DHT22;6518;50.930;5.344;2023-05-20T03:11:49;12.80;72.20
12901;DHT22;6518;50.930;5.344;2023-05-20T03:14:16;12.80;72.40
12901;DHT22;6518;50.930;5.344;2023-05-20T03:16:43;12.70;72.50
12901;DHT22;6518;50.930;5.344;2023-05-20T03:19:10;12.80;72.50
12901;DHT22;6518;50.930;5.344;2023-05-20T03:21:37;12.80;72.50
12901;DHT22;6518;50.930;5.344;2023-05-20T03:24:05;12.80;72.80
12901;DHT22;6518;50.930;5.344;2023-05-20T03:26:33;12.70;72.80
12901;DHT22;6518;50.930;5.344;2023-05-20T03:29:02;12.70;72.90
12901;DHT22;6518;50.930;5.344;2023-05-20T03:31:29;12.70;73.10
12901;DHT22;6518;50.930;5.344;2023-05-20T03:33:56;12.70;73.00
12901;DHT22;6518;50.930;5.344;2023-05-20T03:36:23;12.70;73.00
12901;DHT22;6518;50.930;5.344;2023-05-20T03:38:50;12.70;73.30
12901;DHT22;6518;50.930;5.344;2023-05-20T03:41:18;12.70;73.50
12901;DHT22;6518;50.930;5.344;2023-05-20T03:43:45;12.60;73.80
12901;DHT22;6518;50.930;5.344;2023-05-20T03:46:12;12.60;74.00
12901;DHT22;6518;50.930;5.344;2023-05-20T03:48:39;12.50;74.40
12901;DHT22;6518;50.930;5.344;2023-05-20T03:51:06;12.50;75.20
12901;DHT22;6518;50.930;5.344;2023-05-20T03:53:33;12.60;74.30
12901;DHT22;6518;50.930;5.344;2023-05-20T03:56:00;12.60;74.50
12901;DHT22;6518;50.930;5.344;2023-05-20T03:58:29;12.50;74.90
12901;DHT22;6518;50.930;5.344;2023-05-20T04:00:56;12.40;75.10
12901;DHT22;6518;50.930;5.344;2023-05-20T04:03:22;12.40;75.50
12901;DHT22;6518;50.930;5.344;2023-05-20T04:05:49;12.40;75.70
12901;DHT22;6518;50.930;5.344;2023-05-20T04:08:16;12.40;75.80
12901;DHT22;6518;50.930;5.344;2023-05-20T04:10:44;12.40;75.90
12901;DHT22;6518;50.930;5.344;2023-05-20T04:13:12;12.40;75.80
12901;DHT22;6518;50.930;5.344;2023-05-20T04:15:40;12.40;76.10
12901;DHT22;6518;50.930;5.344;2023-05-20T04:18:07;12.40;76.20
12901;DHT22;6518;50.930;5.344;2023-05-20T04:20:34;12.30;76.60
12901;DHT22;6518;50.930;5.344;2023-05-20T04:23:01;12.20;76.90
12901;DHT22;6518;50.930;5.344;2023-05-20T04:25:28;12.20;77.40
12901;DHT22;6518;50.930;5.344;2023-05-20T04:27:55;12.30;77.30
12901;DHT22;6518;50.930;5.344;2023-05-20T04:30:24;12.30;77.30
12901;DHT22;6518;50.930;5.344;2023-05-20T04:32:53;12.30;77.30
12901;DHT22;6518;50.930;5.344;2023-05-20T04:35:20;12.20;77.60
12901;DHT22;6518;50.930;5.344;2023-05-20T04:37:50;12.30;77.90
12901;DHT22;6518;50.930;5.344;2023-05-20T04:40:18;12.30;77.90
12901;DHT22;6518;50.930;5.344;2023-05-20T04:42:45;12.30;77.90
12901;DHT22;6518;50.930;5.344;2023-05-20T04:45:12;12.40;77.90
12901;DHT22;6518;50.930;5.344;2023-05-20T04:47:39;12.40;77.90
12901;DHT22;6518;50.930;5.344;2023-05-20T04:50:09;12.40;77.80
12901;DHT22;6518;50.930;5.344;2023-05-20T04:52:36;12.40;77.90
12901;DHT22;6518;50.930;5.344;2023-05-20T04:55:05;12.40;78.20
12901;DHT22;6518;50.930;5.344;2023-05-20T04:57:32;12.50;78.20
12901;DHT22;6518;50.930;5.344;2023-05-20T05:00:00;12.50;78.10
12901;DHT22;6518;50.930;5.344;2023-05-20T05:02:27;12.60;77.90
12901;DHT22;6518;50.930;5.344;2023-05-20T05:04:54;12.70;77.90
12901;DHT22;6518;50.930;5.344;2023-05-20T05:07:22;12.80;77.70
12901;DHT22;6518;50.930;5.344;2023-05-20T05:09:49;12.80;77.50
12901;DHT22;6518;50.930;5.344;2023-05-20T05:12:16;12.80;77.50
12901;DHT22;6518;50.930;5.344;2023-05-20T05:14:43;12.90;77.40
12901;DHT22;6518;50.930;5.344;2023-05-20T05:17:10;12.80;77.50
12901;DHT22;6518;50.930;5.344;2023-05-20T05:19:37;12.90;77.50
12901;DHT22;6518;50.930;5.344;2023-05-20T05:22:04;13.00;77.50
12901;DHT22;6518;50.930;5.344;2023-05-20T05:24:32;13.10;77.90
12901;DHT22;6518;50.930;5.344;2023-05-20T05:26:59;13.10;77.20
12901;DHT22;6518;50.930;5.344;2023-05-20T05:29:26;13.10;76.90
12901;DHT22;6518;50.930;5.344;2023-05-20T05:31:53;13.10;77.10
12901;DHT22;6518;50.930;5.344;2023-05-20T05:34:20;13.20;77.10
12901;DHT22;6518;50.930;5.344;2023-05-20T05:36:47;13.30;76.80
12901;DHT22;6518;50.930;5.344;2023-05-20T05:39:15;13.30;76.80
12901;DHT22;6518;50.930;5.344;2023-05-20T05:41:43;13.40;76.50
12901;DHT22;6518;50.930;5.344;2023-05-20T05:44:10;13.40;76.50
12901;DHT22;6518;50.930;5.344;2023-05-20T05:46:37;13.50;76.40
12901;DHT22;6518;50.930;5.344;2023-05-20T05:49:04;13.60;76.30
12901;DHT22;6518;50.930;5.344;2023-05-20T05:51:31;13.60;76.00
12901;DHT22;6518;50.930;5.344;2023-05-20T05:53:58;13.60;76.00
12901;DHT22;6518;50.930;5.344;2023-05-20T05:56:24;13.70;75.90
12901;DHT22;6518;50.930;5.344;2023-05-20T05:58:53;13.70;76.00
12901;DHT22;6518;50.930;5.344;2023-05-20T06:01:20;13.80;76.00
12901;DHT22;6518;50.930;5.344;2023-05-20T06:03:47;13.90;75.90
12901;DHT22;6518;50.930;5.344;2023-05-20T06:06:14;13.90;75.50
12901;DHT22;6518;50.930;5.344;2023-05-20T06:08:41;14.00;75.10
12901;DHT22;6518;50.930;5.344;2023-05-20T06:11:07;14.10;75.30
12901;DHT22;6518;50.930;5.344;2023-05-20T06:13:35;14.20;74.70
12901;DHT22;6518;50.930;5.344;2023-05-20T06:16:03;14.30;74.60
12901;DHT22;6518;50.930;5.344;2023-05-20T06:18:30;14.40;74.50
12901;DHT22;6518;50.930;5.344;2023-05-20T06:20:58;14.50;74.20
12901;DHT22;6518;50.930;5.344;2023-05-20T06:23:25;14.50;73.80
12901;DHT22;6518;50.930;5.344;2023-05-20T06:25:56;14.60;73.40
12901;DHT22;6518;50.930;5.344;2023-05-20T06:28:23;14.70;73.10
12901;DHT22;6518;50.930;5.344;2023-05-20T06:30:49;14.80;73.20
12901;DHT22;6518;50.930;5.344;2023-05-20T06:33:18;14.80;72.90
12901;DHT22;6518;50.930;5.344;2023-05-20T06:35:46;14.90;72.80
12901;DHT22;6518;50.930;5.344;2023-05-20T06:38:12;14.90;72.70
12901;DHT22;6518;50.930;5.344;2023-05-20T06:40:39;15.00;72.60
12901;DHT22;6518;50.930;5.344;2023-05-20T06:43:06;15.10;72.10
12901;DHT22;6518;50.930;5.344;2023-05-20T06:45:33;15.20;71.70
12901;DHT22;6518;50.930;5.344;2023-05-20T06:48:00;15.20;71.70
12901;DHT22;6518;50.930;5.344;2023-05-20T06:50:29;15.20;71.30
12901;DHT22;6518;50.930;5.344;2023-05-20T06:52:56;15.30;71.20
12901;DHT22;6518;50.930;5.344;2023-05-20T06:55:23;15.30;71.30
12901;DHT22;6518;50.930;5.344;2023-05-20T06:57:50;15.30;71.30
12901;DHT22;6518;50.930;5.344;2023-05-20T07:00:18;15.40;71.30
12901;DHT22;6518;50.930;5.344;2023-05-20T07:02:45;15.40;71.30
12901;DHT22;6518;50.930;5.344;2023-05-20T07:05:12;15.50;71.10
12901;DHT22;6518;50.930;5.344;2023-05-20T07:07:40;15.60;70.90
12901;DHT22;6518;50.930;5.344;2023-05-20T07:10:08;15.70;70.80
12901;DHT22;6518;50.930;5.344;2023-05-20T07:12:35;15.70;70.40
12901;DHT22;6518;50.930;5.344;2023-05-20T07:15:02;15.70;70.30
12901;DHT22;6518;50.930;5.344;2023-05-20T07:17:30;15.80;70.70
12901;DHT22;6518;50.930;5.344;2023-05-20T07:19:57;15.90;70.60
12901;DHT22;6518;50.930;5.344;2023-05-20T07:22:24;15.90;70.20
12901;DHT22;6518;50.930;5.344;2023-05-20T07:24:52;16.00;70.00
12901;DHT22;6518;50.930;5.344;2023-05-20T07:27:19;16.00;69.90
12901;DHT22;6518;50.930;5.344;2023-05-20T07:29:46;16.00;69.80
12901;DHT22;6518;50.930;5.344;2023-05-20T07:32:13;16.00;69.90
12901;DHT22;6518;50.930;5.344;2023-05-20T07:34:40;16.00;69.70
12901;DHT22;6518;50.930;5.344;2023-05-20T07:37:07;16.10;70.30
12901;DHT22;6518;50.930;5.344;2023-05-20T07:39:37;16.20;70.00
12901;DHT22;6518;50.930;5.344;2023-05-20T07:42:05;16.30;70.10
12901;DHT22;6518;50.930;5.344;2023-05-20T07:44:32;16.40;69.30
12901;DHT22;6518;50.930;5.344;2023-05-20T07:46:59;16.50;69.30
12901;DHT22;6518;50.930;5.344;2023-05-20T07:49:26;16.50;68.90
12901;DHT22;6518;50.930;5.344;2023-05-20T07:51:53;16.50;68.60
12901;DHT22;6518;50.930;5.344;2023-05-20T07:54:20;16.50;67.60
12901;DHT22;6518;50.930;5.344;2023-05-20T07:56:47;16.60;67.60
12901;DHT22;6518;50.930;5.344;2023-05-20T07:59:16;16.60;67.50
12901;DHT22;6518;50.930;5.344;2023-05-20T08:01:42;16.60;67.70
12901;DHT22;6518;50.930;5.344;2023-05-20T08:04:09;16.70;67.20
12901;DHT22;6518;50.930;5.344;2023-05-20T08:06:36;16.80;66.90
12901;DHT22;6518;50.930;5.344;2023-05-20T08:09:04;16.80;66.30
12901;DHT22;6518;50.930;5.344;2023-05-20T08:11:31;16.90;66.50
12901;DHT22;6518;50.930;5.344;2023-05-20T08:13:58;16.90;66.50
12901;DHT22;6518;50.930;5.344;2023-05-20T08:16:28;17.00;66.30
12901;DHT22;6518;50.930;5.344;2023-05-20T08:18:55;17.10;67.20
12901;DHT22;6518;50.930;5.344;2023-05-20T08:21:21;17.10;65.90
12901;DHT22;6518;50.930;5.344;2023-05-20T08:23:48;17.10;65.20
12901;DHT22;6518;50.930;5.344;2023-05-20T08:26:15;17.10;65.60
12901;DHT22;6518;50.930;5.344;2023-05-20T08:28:42;17.10;65.80
12901;DHT22;6518;50.930;5.344;2023-05-20T08:31:09;17.20;66.00
12901;DHT22;6518;50.930;5.344;2023-05-20T08:33:38;17.30;65.10
12901;DHT22;6518;50.930;5.344;2023-05-20T08:36:05;17.30;65.40
12901;DHT22;6518;50.930;5.344;2023-05-20T08:38:32;17.30;65.90
12901;DHT22;6518;50.930;5.344;2023-05-20T08:40:59;17.50;65.40
12901;DHT22;6518;50.930;5.344;2023-05-20T08:43:26;17.60;65.00
12901;DHT22;6518;50.930;5.344;2023-05-20T08:45:55;17.60;65.00
12901;DHT22;6518;50.930;5.344;2023-05-20T08:48:23;17.60;65.00
12901;DHT22;6518;50.930;5.344;2023-05-20T08:50:52;17.60;65.20
12901;DHT22;6518;50.930;5.344;2023-05-20T08:53:22;17.60;64.60
12901;DHT22;6518;50.930;5.344;2023-05-20T08:55:52;17.60;64.50
12901;DHT22;6518;50.930;5.344;2023-05-20T08:58:22;17.60;64.50
12901;DHT22;6518;50.930;5.344;2023-05-20T09:00:49;17.60;64.60
12901;DHT22;6518;50.930;5.344;2023-05-20T09:03:17;17.60;64.10
12901;DHT22;6518;50.930;5.344;2023-05-20T09:05:46;17.60;64.90
12901;DHT22;6518;50.930;5.344;2023-05-20T09:08:15;17.70;64.20
12901;DHT22;6518;50.930;5.344;2023-05-20T09:10:42;17.80;64.40
12901;DHT22;6518;50.930;5.344;2023-05-20T09:13:09;17.90;64.20
12901;DHT22;6518;50.930;5.344;2023-05-20T09:15:37;17.90;63.60
12901;DHT22;6518;50.930;5.344;2023-05-20T09:18:06;18.00;63.70
12901;DHT22;6518;50.930;5.344;2023-05-20T09:20:34;18.10;63.30
12901;DHT22;6518;50.930;5.344;2023-05-20T09:23:03;18.10;63.20
12901;DHT22;6518;50.930;5.344;2023-05-20T09:25:33;18.20;63.00
12901;DHT22;6518;50.930;5.344;2023-05-20T09:28:00;18.20;62.90
12901;DHT22;6518;50.930;5.344;2023-05-20T09:30:27;18.20;63.30
12901;DHT22;6518;50.930;5.344;2023-05-20T09:32:54;18.20;64.10
12901;DHT22;6518;50.930;5.344;2023-05-20T09:35:22;18.30;63.00
12901;DHT22;6518;50.930;5.344;2023-05-20T09:37:51;18.30;63.00
12901;DHT22;6518;50.930;5.344;2023-05-20T09:40:22;18.40;63.00
12901;DHT22;6518;50.930;5.344;2023-05-20T09:42:55;18.40;62.60
12901;DHT22;6518;50.930;5.344;2023-05-20T09:45:22;18.40;63.20
12901;DHT22;6518;50.930;5.344;2023-05-20T09:47:50;18.40;63.20
12901;DHT22;6518;50.930;5.344;2023-05-20T09:50:18;18.50;63.00
12901;DHT22;6518;50.930;5.344;2023-05-20T09:52:47;18.40;62.90
12901;DHT22;6518;50.930;5.344;2023-05-20T09:55:15;18.40;63.00
12901;DHT22;6518;50.930;5.344;2023-05-20T09:57:42;18.50;63.10
12901;DHT22;6518;50.930;5.344;2023-05-20T10:00:12;18.50;63.10
12901;DHT22;6518;50.930;5.344;2023-05-20T10:02:43;18.60;63.30
12901;DHT22;6518;50.930;5.344;2023-05-20T10:05:14;18.60;62.90
12901;DHT22;6518;50.930;5.344;2023-05-20T10:08:19;18.60;63.00
12901;DHT22;6518;50.930;5.344;2023-05-20T10:10:53;18.70;63.60
12901;DHT22;6518;50.930;5.344;2023-05-20T10:13:32;18.80;63.70
12901;DHT22;6518;50.930;5.344;2023-05-20T10:16:11;18.90;62.60
12901;DHT22;6518;50.930;5.344;2023-05-20T10:18:48;19.00;62.50
12901;DHT22;6518;50.930;5.344;2023-05-20T10:21:20;18.90;62.70
12901;DHT22;6518;50.930;5.344;2023-05-20T10:23:49;19.00;63.00
12901;DHT22;6518;50.930;5.344;2023-05-20T10:26:16;19.00;62.50
12901;DHT22;6518;50.930;5.344;2023-05-20T10:28:43;19.00;63.30
12901;DHT22;6518;50.930;5.344;2023-05-20T10:31:16;18.90;62.50
12901;DHT22;6518;50.930;5.344;2023-05-20T10:33:44;19.00;62.60
12901;DHT22;6518;50.930;5.344;2023-05-20T10:36:21;19.10;62.70
12901;DHT22;6518;50.930;5.344;2023-05-20T10:38:53;19.20;62.00
12901;DHT22;6518;50.930;5.344;2023-05-20T10:41:22;19.40;61.60
12901;DHT22;6518;50.930;5.344;2023-05-20T10:43:59;19.50;61.60
12901;DHT22;6518;50.930;5.344;2023-05-20T10:46:29;19.60;61.40
12901;DHT22;6518;50.930;5.344;2023-05-20T10:48:56;19.60;61.40
12901;DHT22;6518;50.930;5.344;2023-05-20T10:51:23;19.50;61.10
12901;DHT22;6518;50.930;5.344;2023-05-20T10:53:54;19.30;61.60
12901;DHT22;6518;50.930;5.344;2023-05-20T10:56:23;19.20;61.80
12901;DHT22;6518;50.930;5.344;2023-05-20T10:58:51;19.30;61.60
12901;DHT22;6518;50.930;5.344;2023-05-20T11:01:25;19.30;61.60
12901;DHT22;6518;50.930;5.344;2023-05-20T11:03:56;19.40;61.50
12901;DHT22;6518;50.930;5.344;2023-05-20T11:06:25;19.50;62.30
12901;DHT22;6518;50.930;5.344;2023-05-20T11:08:53;19.60;61.30
12901;DHT22;6518;50.930;5.344;2023-05-20T11:11:21;19.80;60.80
12901;DHT22;6518;50.930;5.344;2023-05-20T11:13:50;19.80;60.80
12901;DHT22;6518;50.930;5.344;2023-05-20T11:16:19;19.90;60.80
12901;DHT22;6518;50.930;5.344;2023-05-20T11:18:47;20.00;61.30
12901;DHT22;6518;50.930;5.344;2023-05-20T11:21:17;20.20;60.40
12901;DHT22;6518;50.930;5.344;2023-05-20T11:23:44;20.30;60.70
12901;DHT22;6518;50.930;5.344;2023-05-20T11:26:11;20.40;59.80
12901;DHT22;6518;50.930;5.344;2023-05-20T11:28:39;20.40;59.60
12901;DHT22;6518;50.930;5.344;2023-05-20T11:31:06;20.50;59.90
12901;DHT22;6518;50.930;5.344;2023-05-20T11:33:32;20.60;58.70
12901;DHT22;6518;50.930;5.344;2023-05-20T11:36:01;20.60;59.00
12901;DHT22;6518;50.930;5.344;2023-05-20T11:38:30;20.60;58.80
12901;DHT22;6518;50.930;5.344;2023-05-20T11:40:57;20.50;59.10
12901;DHT22;6518;50.930;5.344;2023-05-20T11:43:24;20.60;59.30
12901;DHT22;6518;50.930;5.344;2023-05-20T11:45:55;20.50;59.00
12901;DHT22;6518;50.930;5.344;2023-05-20T11:48:23;20.50;58.90
12901;DHT22;6518;50.930;5.344;2023-05-20T11:50:52;20.50;59.40
12901;DHT22;6518;50.930;5.344;2023-05-20T11:53:21;20.40;58.60
12901;DHT22;6518;50.930;5.344;2023-05-20T11:55:51;20.40;59.60
12901;DHT22;6518;50.930;5.344;2023-05-20T11:58:18;20.50;59.30
12901;DHT22;6518;50.930;5.344;2023-05-20T12:00:46;20.50;59.10
12901;DHT22;6518;50.930;5.344;2023-05-20T12:03:13;20.50;59.50
12901;DHT22;6518;50.930;5.344;2023-05-20T12:05:41;20.50;60.00
12901;DHT22;6518;50.930;5.344;2023-05-20T12:08:08;20.40;59.00
12901;DHT22;6518;50.930;5.344;2023-05-20T12:10:35;20.40;59.40
12901;DHT22;6518;50.930;5.344;2023-05-20T12:13:04;20.50;59.60
12901;DHT22;6518;50.930;5.344;2023-05-20T12:15:33;20.50;59.30
12901;DHT22;6518;50.930;5.344;2023-05-20T12:18:00;20.50;59.10
12901;DHT22;6518;50.930;5.344;2023-05-20T12:20:28;20.50;59.70
12901;DHT22;6518;50.930;5.344;2023-05-20T12:22:56;20.50;59.80
12901;DHT22;6518;50.930;5.344;2023-05-20T12:25:24;20.50;60.10
12901;DHT22;6518;50.930;5.344;2023-05-20T12:27:51;20.40;60.20
12901;DHT22;6518;50.930;5.344;2023-05-20T12:30:21;20.40;60.50
12901;DHT22;6518;50.930;5.344;2023-05-20T12:32:49;20.40;60.10
12901;DHT22;6518;50.930;5.344;2023-05-20T12:35:18;20.40;60.30
12901;DHT22;6518;50.930;5.344;2023-05-20T12:37:45;20.50;60.00
12901;DHT22;6518;50.930;5.344;2023-05-20T12:40:12;20.50;59.50
12901;DHT22;6518;50.930;5.344;2023-05-20T12:42:40;20.60;59.30
12901;DHT22;6518;50.930;5.344;2023-05-20T12:45:08;20.70;60.20
12901;DHT22;6518;50.930;5.344;2023-05-20T12:47:36;20.80;60.10
12901;DHT22;6518;50.930;5.344;2023-05-20T12:50:03;20.80;60.40
12901;DHT22;6518;50.930;5.344;2023-05-20T12:52:30;20.80;60.00
12901;DHT22;6518;50.930;5.344;2023-05-20T12:54:57;20.80;60.00
12901;DHT22;6518;50.930;5.344;2023-05-20T12:57:24;20.80;59.80
12901;DHT22;6518;50.930;5.344;2023-05-20T12:59:52;20.90;59.70
12901;DHT22;6518;50.930;5.344;2023-05-20T13:02:19;21.00;59.60
12901;DHT22;6518;50.930;5.344;2023-05-20T13:04:47;21.00;59.50
12901;DHT22;6518;50.930;5.344;2023-05-20T13:07:14;21.00;59.20
12901;DHT22;6518;50.930;5.344;2023-05-20T13:09:42;21.00;59.30
12901;DHT22;6518;50.930;5.344;2023-05-20T13:12:09;20.90;59.60
12901;DHT22;6518;50.930;5.344;2023-05-20T13:14:36;20.80;59.80
12901;DHT22;6518;50.930;5.344;2023-05-20T13:17:03;20.70;59.90
12901;DHT22;6518;50.930;5.344;2023-05-20T13:19:30;20.60;60.30
12901;DHT22;6518;50.930;5.344;2023-05-20T13:21:59;20.70;60.50
12901;DHT22;6518;50.930;5.344;2023-05-20T13:24:26;20.90;59.50
12901;DHT22;6518;50.930;5.344;2023-05-20T13:26:53;21.00;59.40
12901;DHT22;6518;50.930;5.344;2023-05-20T13:29:20;21.00;59.50
12901;DHT22;6518;50.930;5.344;2023-05-20T13:31:47;21.00;59.30
12901;DHT22;6518;50.930;5.344;2023-05-20T13:34:14;21.00;58.70
12901;DHT22;6518;50.930;5.344;2023-05-20T13:36:41;21.00;58.60
12901;DHT22;6518;50.930;5.344;2023-05-20T13:39:10;21.10;59.00
12901;DHT22;6518;50.930;5.344;2023-05-20T13:41:37;21.10;58.90
12901;DHT22;6518;50.930;5.344;2023-05-20T13:44:04;21.10;59.00
12901;DHT22;6518;50.930;5.344;2023-05-20T13:46:31;21.00;59.20
12901;DHT22;6518;50.930;5.344;2023-05-20T13:48:58;21.10;59.30
12901;DHT22;6518;50.930;5.344;2023-05-20T13:51:25;21.10;59.60
12901;DHT22;6518;50.930;5.344;2023-05-20T13:53:52;21.00;60.10
12901;DHT22;6518;50.930;5.344;2023-05-20T13:56:20;20.90;60.90
12901;DHT22;6518;50.930;5.344;2023-05-20T13:58:47;20.90;59.60
12901;DHT22;6518;50.930;5.344;2023-05-20T14:01:14;21.00;59.50
12901;DHT22;6518;50.930;5.344;2023-05-20T14:03:41;21.20;59.40
12901;DHT22;6518;50.930;5.344;2023-05-20T14:06:08;21.40;59.20
12901;DHT22;6518;50.930;5.344;2023-05-20T14:08:35;21.40;59.30
12901;DHT22;6518;50.930;5.344;2023-05-20T14:11:02;21.20;59.20
12901;DHT22;6518;50.930;5.344;2023-05-20T14:13:30;21.20;59.40
12901;DHT22;6518;50.930;5.344;2023-05-20T14:15:57;21.20;59.40
12901;DHT22;6518;50.930;5.344;2023-05-20T14:18:24;21.30;59.40
12901;DHT22;6518;50.930;5.344;2023-05-20T14:20:51;21.20;59.60
12901;DHT22;6518;50.930;5.344;2023-05-20T14:23:18;21.30;59.70
12901;DHT22;6518;50.930;5.344;2023-05-20T14:25:45;21.30;59.90
12901;DHT22;6518;50.930;5.344;2023-05-20T14:28:13;21.30;59.80
12901;DHT22;6518;50.930;5.344;2023-05-20T14:30:41;21.30;59.70
12901;DHT22;6518;50.930;5.344;2023-05-20T14:33:08;21.30;59.40
12901;DHT22;6518;50.930;5.344;2023-05-20T14:35:35;21.30;59.20
12901;DHT22;6518;50.930;5.344;2023-05-20T14:38:02;21.30;59.60
12901;DHT22;6518;50.930;5.344;2023-05-20T14:40:29;21.40;59.90
12901;DHT22;6518;50.930;5.344;2023-05-20T14:42:56;21.50;59.70
12901;DHT22;6518;50.930;5.344;2023-05-20T14:45:23;21.40;59.80
12901;DHT22;6518;50.930;5.344;2023-05-20T14:47:51;21.30;59.80
12901;DHT22;6518;50.930;5.344;2023-05-20T14:50:18;21.40;60.10
12901;DHT22;6518;50.930;5.344;2023-05-20T14:52:45;21.20;60.30
12901;DHT22;6518;50.930;5.344;2023-05-20T14:55:12;21.20;60.20
12901;DHT22;6518;50.930;5.344;2023-05-20T14:57:39;21.30;60.30
12901;DHT22;6518;50.930;5.344;2023-05-20T15:00:07;21.30;59.80
12901;DHT22;6518;50.930;5.344;2023-05-20T15:02:35;21.30;59.70
12901;DHT22;6518;50.930;5.344;2023-05-20T15:05:04;21.40;60.00
12901;DHT22;6518;50.930;5.344;2023-05-20T15:07:31;21.40;59.50
12901;DHT22;6518;50.930;5.344;2023-05-20T15:09:58;21.30;60.30
12901;DHT22;6518;50.930;5.344;2023-05-20T15:12:25;21.20;60.50
12901;DHT22;6518;50.930;5.344;2023-05-20T15:14:52;21.10;61.00
12901;DHT22;6518;50.930;5.344;2023-05-20T15:17:19;21.20;60.90
12901;DHT22;6518;50.930;5.344;2023-05-20T15:19:46;21.10;60.90
12901;DHT22;6518;50.930;5.344;2023-05-20T15:22:14;21.20;61.00
12901;DHT22;6518;50.930;5.344;2023-05-20T15:24:41;21.20;60.30
12901;DHT22;6518;50.930;5.344;2023-05-20T15:27:08;21.10;60.90
12901;DHT22;6518;50.930;5.344;2023-05-20T15:29:35;21.00;61.10
12901;DHT22;6518;50.930;5.344;2023-05-20T15:32:03;20.80;61.20
12901;DHT22;6518;50.930;5.344;2023-05-20T15:34:30;20.80;61.20
12901;DHT22;6518;50.930;5.344;2023-05-20T15:36:57;20.90;61.40
12901;DHT22;6518;50.930;5.344;2023-05-20T15:39:25;20.90;61.20
12901;DHT22;6518;50.930;5.344;2023-05-20T15:41:52;20.90;61.30
12901;DHT22;6518;50.930;5.344;2023-05-20T15:44:19;20.80;61.00
12901;DHT22;6518;50.930;5.344;2023-05-20T15:46:46;20.90;60.80
12901;DHT22;6518;50.930;5.344;2023-05-20T15:49:13;20.90;61.00